Aviation Digital Data Service (ADDS)

Output produced by METARs form (0056 UTC 01 December 2022)
found at http://aviationweather.gov/metar/data/
 
KFMN 302329Z 0100/0124 10009KT P6SM BKN250 
     FM012000 VRB05KT P6SM BKN200